sensor_id;sensor_type;location;lat;lon;timestamp;P1;durP1;ratioP1;P2;durP2;ratioP2
49488;SDS011;35382;51.484;11.476;2023-04-01T00:01:23;7.65;;;2.60;;
49488;SDS011;35382;51.484;11.476;2023-04-01T00:03:06;8.32;;;3.13;;
49488;SDS011;35382;51.484;11.476;2023-04-01T00:04:47;7.80;;;2.65;;
49488;SDS011;35382;51.484;11.476;2023-04-01T00:06:28;7.57;;;2.50;;
49488;SDS011;35382;51.484;11.476;2023-04-01T00:08:09;10.02;;;3.08;;
49488;SDS011;35382;51.484;11.476;2023-04-01T00:09:50;8.77;;;2.83;;
49488;SDS011;35382;51.484;11.476;2023-04-01T00:11:32;11.30;;;2.70;;
49488;SDS011;35382;51.484;11.476;2023-04-01T00:13:13;7.07;;;2.50;;
49488;SDS011;35382;51.484;11.476;2023-04-01T00:14:54;8.55;;;2.67;;
49488;SDS011;35382;51.484;11.476;2023-04-01T00:16:35;11.35;;;2.95;;
49488;SDS011;35382;51.484;11.476;2023-04-01T00:18:18;4.82;;;2.05;;
49488;SDS011;35382;51.484;11.476;2023-04-01T00:19:59;9.88;;;2.47;;
49488;SDS011;35382;51.484;11.476;2023-04-01T00:21:40;5.47;;;2.15;;
49488;SDS011;35382;51.484;11.476;2023-04-01T00:23:20;8.68;;;2.25;;
49488;SDS011;35382;51.484;11.476;2023-04-01T00:25:02;9.75;;;2.80;;
49488;SDS011;35382;51.484;11.476;2023-04-01T00:26:44;8.98;;;2.65;;
49488;SDS011;35382;51.484;11.476;2023-04-01T00:28:26;8.55;;;2.97;;
49488;SDS011;35382;51.484;11.476;2023-04-01T00:30:08;6.18;;;2.28;;
49488;SDS011;35382;51.484;11.476;2023-04-01T00:31:49;7.50;;;2.20;;
49488;SDS011;35382;51.484;11.476;2023-04-01T00:33:30;7.45;;;2.63;;
49488;SDS011;35382;51.484;11.476;2023-04-01T00:35:14;9.23;;;2.45;;
49488;SDS011;35382;51.484;11.476;2023-04-01T00:36:55;7.85;;;2.70;;
49488;SDS011;35382;51.484;11.476;2023-04-01T00:38:36;5.45;;;2.40;;
49488;SDS011;35382;51.484;11.476;2023-04-01T00:40:22;7.35;;;2.33;;
49488;SDS011;35382;51.484;11.476;2023-04-01T00:42:06;7.15;;;2.53;;
49488;SDS011;35382;51.484;11.476;2023-04-01T00:43:48;10.27;;;2.20;;
49488;SDS011;35382;51.484;11.476;2023-04-01T00:45:33;6.57;;;2.40;;
49488;SDS011;35382;51.484;11.476;2023-04-01T00:47:16;5.68;;;2.47;;
49488;SDS011;35382;51.484;11.476;2023-04-01T00:48:57;8.45;;;2.30;;
49488;SDS011;35382;51.484;11.476;2023-04-01T00:50:38;10.82;;;2.55;;
49488;SDS011;35382;51.484;11.476;2023-04-01T00:52:22;8.98;;;3.00;;
49488;SDS011;35382;51.484;11.476;2023-04-01T00:54:06;6.40;;;2.53;;
49488;SDS011;35382;51.484;11.476;2023-04-01T00:55:51;8.18;;;3.00;;
49488;SDS011;35382;51.484;11.476;2023-04-01T00:57:37;7.28;;;2.50;;
49488;SDS011;35382;51.484;11.476;2023-04-01T00:59:21;5.72;;;2.20;;
49488;SDS011;35382;51.484;11.476;2023-04-01T01:01:07;8.13;;;2.30;;
49488;SDS011;35382;51.484;11.476;2023-04-01T01:02:49;8.05;;;2.20;;
49488;SDS011;35382;51.484;11.476;2023-04-01T01:04:32;8.90;;;3.03;;
49488;SDS011;35382;51.484;11.476;2023-04-01T01:08:29;9.30;;;2.10;;
49488;SDS011;35382;51.484;11.476;2023-04-01T01:10:31;6.00;;;2.00;;
49488;SDS011;35382;51.484;11.476;2023-04-01T01:12:21;8.20;;;2.45;;
49488;SDS011;35382;51.484;11.476;2023-04-01T01:14:34;5.88;;;2.20;;
49488;SDS011;35382;51.484;11.476;2023-04-01T01:16:25;5.28;;;2.05;;
49488;SDS011;35382;51.484;11.476;2023-04-01T01:18:12;7.43;;;2.17;;
49488;SDS011;35382;51.484;11.476;2023-04-01T01:20:23;5.25;;;2.28;;
49488;SDS011;35382;51.484;11.476;2023-04-01T01:22:18;7.53;;;2.40;;
49488;SDS011;35382;51.484;11.476;2023-04-01T01:24:13;7.03;;;2.38;;
49488;SDS011;35382;51.484;11.476;2023-04-01T01:36:15;8.55;;;2.58;;
49488;SDS011;35382;51.484;11.476;2023-04-01T01:38:04;7.38;;;2.20;;
49488;SDS011;35382;51.484;11.476;2023-04-01T01:39:49;7.53;;;2.00;;
49488;SDS011;35382;51.484;11.476;2023-04-01T01:41:34;8.27;;;2.72;;
49488;SDS011;35382;51.484;11.476;2023-04-01T01:43:19;5.35;;;2.25;;
49488;SDS011;35382;51.484;11.476;2023-04-01T01:45:04;8.30;;;2.55;;
49488;SDS011;35382;51.484;11.476;2023-04-01T01:46:47;4.30;;;2.10;;
49488;SDS011;35382;51.484;11.476;2023-04-01T01:48:29;7.97;;;2.40;;
49488;SDS011;35382;51.484;11.476;2023-04-01T01:50:13;7.60;;;2.30;;
49488;SDS011;35382;51.484;11.476;2023-04-01T01:51:55;6.28;;;2.25;;
49488;SDS011;35382;51.484;11.476;2023-04-01T01:53:37;8.75;;;2.60;;
49488;SDS011;35382;51.484;11.476;2023-04-01T01:55:23;8.27;;;2.17;;
49488;SDS011;35382;51.484;11.476;2023-04-01T01:57:08;6.50;;;3.08;;
49488;SDS011;35382;51.484;11.476;2023-04-01T01:58:55;8.77;;;2.60;;
49488;SDS011;35382;51.484;11.476;2023-04-01T02:00:40;5.07;;;2.15;;
49488;SDS011;35382;51.484;11.476;2023-04-01T02:02:24;8.00;;;2.50;;
49488;SDS011;35382;51.484;11.476;2023-04-01T02:04:06;9.93;;;2.95;;
49488;SDS011;35382;51.484;11.476;2023-04-01T02:05:50;6.35;;;2.53;;
49488;SDS011;35382;51.484;11.476;2023-04-01T02:07:34;7.07;;;2.72;;
49488;SDS011;35382;51.484;11.476;2023-04-01T02:09:16;7.97;;;2.42;;
49488;SDS011;35382;51.484;11.476;2023-04-01T02:11:01;8.00;;;2.65;;
49488;SDS011;35382;51.484;11.476;2023-04-01T02:12:50;7.28;;;2.47;;
49488;SDS011;35382;51.484;11.476;2023-04-01T02:14:39;9.77;;;2.75;;
49488;SDS011;35382;51.484;11.476;2023-04-01T02:16:28;6.65;;;2.50;;
49488;SDS011;35382;51.484;11.476;2023-04-01T02:18:15;8.35;;;2.45;;
49488;SDS011;35382;51.484;11.476;2023-04-01T02:20:07;7.22;;;2.70;;
49488;SDS011;35382;51.484;11.476;2023-04-01T02:21:55;7.28;;;2.65;;
49488;SDS011;35382;51.484;11.476;2023-04-01T02:23:39;10.10;;;2.80;;
49488;SDS011;35382;51.484;11.476;2023-04-01T02:25:27;7.93;;;2.65;;
49488;SDS011;35382;51.484;11.476;2023-04-01T02:27:11;10.50;;;3.35;;
49488;SDS011;35382;51.484;11.476;2023-04-01T02:28:53;10.45;;;3.10;;
49488;SDS011;35382;51.484;11.476;2023-04-01T02:30:36;4.93;;;2.40;;
49488;SDS011;35382;51.484;11.476;2023-04-01T02:32:19;5.60;;;2.70;;
49488;SDS011;35382;51.484;11.476;2023-04-01T02:34:01;9.85;;;2.60;;
49488;SDS011;35382;51.484;11.476;2023-04-01T02:35:44;6.32;;;2.53;;
49488;SDS011;35382;51.484;11.476;2023-04-01T02:37:25;6.70;;;2.55;;
49488;SDS011;35382;51.484;11.476;2023-04-01T02:39:07;5.20;;;2.17;;
49488;SDS011;35382;51.484;11.476;2023-04-01T02:40:50;6.45;;;2.63;;
49488;SDS011;35382;51.484;11.476;2023-04-01T02:42:36;7.30;;;2.60;;
49488;SDS011;35382;51.484;11.476;2023-04-01T02:44:18;8.98;;;2.47;;
49488;SDS011;35382;51.484;11.476;2023-04-01T02:45:59;6.78;;;2.63;;
49488;SDS011;35382;51.484;11.476;2023-04-01T02:47:40;6.30;;;2.22;;
49488;SDS011;35382;51.484;11.476;2023-04-01T02:49:21;7.35;;;2.47;;
49488;SDS011;35382;51.484;11.476;2023-04-01T02:51:02;6.13;;;2.60;;
49488;SDS011;35382;51.484;11.476;2023-04-01T02:52:44;5.82;;;2.47;;
49488;SDS011;35382;51.484;11.476;2023-04-01T02:54:25;7.07;;;2.35;;
49488;SDS011;35382;51.484;11.476;2023-04-01T02:56:06;8.68;;;2.50;;
49488;SDS011;35382;51.484;11.476;2023-04-01T02:57:47;6.93;;;2.45;;
49488;SDS011;35382;51.484;11.476;2023-04-01T02:59:28;6.75;;;2.28;;
49488;SDS011;35382;51.484;11.476;2023-04-01T03:01:09;9.13;;;2.50;;
49488;SDS011;35382;51.484;11.476;2023-04-01T03:02:50;7.30;;;2.30;;
49488;SDS011;35382;51.484;11.476;2023-04-01T03:04:31;10.25;;;2.55;;
49488;SDS011;35382;51.484;11.476;2023-04-01T03:06:12;6.70;;;2.60;;
49488;SDS011;35382;51.484;11.476;2023-04-01T03:07:55;5.65;;;2.53;;
49488;SDS011;35382;51.484;11.476;2023-04-01T03:09:37;6.05;;;2.45;;
49488;SDS011;35382;51.484;11.476;2023-04-01T03:11:18;7.28;;;2.67;;
49488;SDS011;35382;51.484;11.476;2023-04-01T03:13:00;5.32;;;2.47;;
49488;SDS011;35382;51.484;11.476;2023-04-01T03:14:41;6.47;;;2.50;;
49488;SDS011;35382;51.484;11.476;2023-04-01T03:16:22;9.80;;;2.72;;
49488;SDS011;35382;51.484;11.476;2023-04-01T03:18:05;9.50;;;2.75;;
49488;SDS011;35382;51.484;11.476;2023-04-01T03:19:46;9.20;;;3.50;;
49488;SDS011;35382;51.484;11.476;2023-04-01T03:21:27;5.85;;;2.35;;
49488;SDS011;35382;51.484;11.476;2023-04-01T03:23:08;8.40;;;2.55;;
49488;SDS011;35382;51.484;11.476;2023-04-01T03:24:49;11.25;;;3.03;;
49488;SDS011;35382;51.484;11.476;2023-04-01T03:26:30;5.68;;;2.22;;
49488;SDS011;35382;51.484;11.476;2023-04-01T03:28:12;7.43;;;2.47;;
49488;SDS011;35382;51.484;11.476;2023-04-01T03:29:53;7.97;;;2.35;;
49488;SDS011;35382;51.484;11.476;2023-04-01T03:31:34;8.73;;;2.92;;
49488;SDS011;35382;51.484;11.476;2023-04-01T03:33:15;9.07;;;2.90;;
49488;SDS011;35382;51.484;11.476;2023-04-01T03:34:56;7.53;;;2.83;;
49488;SDS011;35382;51.484;11.476;2023-04-01T03:36:37;5.97;;;2.22;;
49488;SDS011;35382;51.484;11.476;2023-04-01T03:38:18;6.90;;;2.63;;
49488;SDS011;35382;51.484;11.476;2023-04-01T03:39:59;9.23;;;2.58;;
49488;SDS011;35382;51.484;11.476;2023-04-01T03:41:40;6.85;;;2.88;;
49488;SDS011;35382;51.484;11.476;2023-04-01T03:43:21;6.90;;;2.55;;
49488;SDS011;35382;51.484;11.476;2023-04-01T03:45:03;5.43;;;2.58;;
49488;SDS011;35382;51.484;11.476;2023-04-01T03:46:45;8.10;;;2.63;;
49488;SDS011;35382;51.484;11.476;2023-04-01T03:48:25;4.88;;;1.83;;
49488;SDS011;35382;51.484;11.476;2023-04-01T03:50:07;9.95;;;2.70;;
49488;SDS011;35382;51.484;11.476;2023-04-01T03:51:48;7.90;;;3.15;;
49488;SDS011;35382;51.484;11.476;2023-04-01T03:53:29;6.05;;;2.50;;
49488;SDS011;35382;51.484;11.476;2023-04-01T03:55:13;6.30;;;2.25;;
49488;SDS011;35382;51.484;11.476;2023-04-01T03:56:54;8.95;;;3.00;;
49488;SDS011;35382;51.484;11.476;2023-04-01T03:58:37;11.38;;;2.75;;
49488;SDS011;35382;51.484;11.476;2023-04-01T04:00:21;5.47;;;2.47;;
49488;SDS011;35382;51.484;11.476;2023-04-01T04:02:08;4.97;;;2.17;;
49488;SDS011;35382;51.484;11.476;2023-04-01T04:03:50;7.25;;;2.35;;
49488;SDS011;35382;51.484;11.476;2023-04-01T04:05:31;8.10;;;2.63;;
49488;SDS011;35382;51.484;11.476;2023-04-01T04:07:12;6.97;;;2.38;;
49488;SDS011;35382;51.484;11.476;2023-04-01T04:09:16;5.45;;;2.30;;
49488;SDS011;35382;51.484;11.476;2023-04-01T04:10:56;6.95;;;2.35;;
49488;SDS011;35382;51.484;11.476;2023-04-01T04:12:37;6.97;;;2.03;;
49488;SDS011;35382;51.484;11.476;2023-04-01T04:14:19;5.70;;;2.67;;
49488;SDS011;35382;51.484;11.476;2023-04-01T04:16:02;4.18;;;1.80;;
49488;SDS011;35382;51.484;11.476;2023-04-01T04:17:44;4.55;;;1.83;;
49488;SDS011;35382;51.484;11.476;2023-04-01T04:19:26;5.55;;;1.83;;
49488;SDS011;35382;51.484;11.476;2023-04-01T04:21:10;5.55;;;1.88;;
49488;SDS011;35382;51.484;11.476;2023-04-01T04:22:53;6.70;;;2.28;;
49488;SDS011;35382;51.484;11.476;2023-04-01T04:24:34;5.63;;;1.75;;
49488;SDS011;35382;51.484;11.476;2023-04-01T04:26:24;6.00;;;1.98;;
49488;SDS011;35382;51.484;11.476;2023-04-01T04:28:13;8.35;;;2.08;;
49488;SDS011;35382;51.484;11.476;2023-04-01T04:29:54;6.68;;;1.67;;
49488;SDS011;35382;51.484;11.476;2023-04-01T04:31:35;7.50;;;1.92;;
49488;SDS011;35382;51.484;11.476;2023-04-01T04:33:16;5.50;;;1.80;;
49488;SDS011;35382;51.484;11.476;2023-04-01T04:34:57;4.63;;;2.05;;
49488;SDS011;35382;51.484;11.476;2023-04-01T04:36:38;5.75;;;2.03;;
49488;SDS011;35382;51.484;11.476;2023-04-01T04:38:19;6.15;;;2.25;;
49488;SDS011;35382;51.484;11.476;2023-04-01T04:40:00;10.55;;;2.08;;
49488;SDS011;35382;51.484;11.476;2023-04-01T04:41:42;5.60;;;1.77;;
49488;SDS011;35382;51.484;11.476;2023-04-01T04:43:23;5.57;;;1.70;;
49488;SDS011;35382;51.484;11.476;2023-04-01T04:45:05;5.75;;;1.77;;
49488;SDS011;35382;51.484;11.476;2023-04-01T04:46:47;4.78;;;1.90;;
49488;SDS011;35382;51.484;11.476;2023-04-01T04:48:29;5.82;;;2.08;;
49488;SDS011;35382;51.484;11.476;2023-04-01T04:50:10;4.40;;;1.70;;
49488;SDS011;35382;51.484;11.476;2023-04-01T04:51:54;6.85;;;1.95;;
49488;SDS011;35382;51.484;11.476;2023-04-01T04:53:38;7.72;;;2.20;;
49488;SDS011;35382;51.484;11.476;2023-04-01T04:55:19;8.27;;;3.25;;
49488;SDS011;35382;51.484;11.476;2023-04-01T04:57:05;5.07;;;1.77;;
49488;SDS011;35382;51.484;11.476;2023-04-01T04:58:52;5.75;;;1.75;;
49488;SDS011;35382;51.484;11.476;2023-04-01T05:00:37;5.60;;;2.28;;
49488;SDS011;35382;51.484;11.476;2023-04-01T05:02:23;5.20;;;1.60;;
49488;SDS011;35382;51.484;11.476;2023-04-01T05:04:04;6.55;;;1.90;;
49488;SDS011;35382;51.484;11.476;2023-04-01T05:05:49;4.95;;;1.90;;
49488;SDS011;35382;51.484;11.476;2023-04-01T05:07:31;5.60;;;2.13;;
49488;SDS011;35382;51.484;11.476;2023-04-01T05:09:13;7.38;;;1.83;;
49488;SDS011;35382;51.484;11.476;2023-04-01T05:10:55;4.78;;;1.55;;
49488;SDS011;35382;51.484;11.476;2023-04-01T05:12:36;7.45;;;2.38;;
49488;SDS011;35382;51.484;11.476;2023-04-01T05:14:20;4.38;;;1.60;;
49488;SDS011;35382;51.484;11.476;2023-04-01T05:16:11;6.15;;;1.65;;
49488;SDS011;35382;51.484;11.476;2023-04-01T05:17:53;4.85;;;1.70;;
49488;SDS011;35382;51.484;11.476;2023-04-01T05:19:34;4.65;;;1.55;;
49488;SDS011;35382;51.484;11.476;2023-04-01T05:21:15;6.45;;;1.73;;
49488;SDS011;35382;51.484;11.476;2023-04-01T05:22:57;4.97;;;1.83;;
49488;SDS011;35382;51.484;11.476;2023-04-01T05:24:39;3.28;;;1.77;;
49488;SDS011;35382;51.484;11.476;2023-04-01T05:26:20;4.47;;;1.67;;
49488;SDS011;35382;51.484;11.476;2023-04-01T05:28:01;4.90;;;2.05;;
49488;SDS011;35382;51.484;11.476;2023-04-01T05:29:42;5.47;;;1.73;;
49488;SDS011;35382;51.484;11.476;2023-04-01T05:33:12;4.35;;;1.70;;
49488;SDS011;35382;51.484;11.476;2023-04-01T05:34:53;5.65;;;2.03;;
49488;SDS011;35382;51.484;11.476;2023-04-01T05:36:34;5.10;;;1.92;;
49488;SDS011;35382;51.484;11.476;2023-04-01T05:38:16;6.20;;;1.70;;
49488;SDS011;35382;51.484;11.476;2023-04-01T05:39:57;5.88;;;1.98;;
49488;SDS011;35382;51.484;11.476;2023-04-01T05:41:39;11.73;;;3.00;;
49488;SDS011;35382;51.484;11.476;2023-04-01T05:43:20;6.88;;;1.98;;
49488;SDS011;35382;51.484;11.476;2023-04-01T05:45:03;8.27;;;1.80;;
49488;SDS011;35382;51.484;11.476;2023-04-01T05:47:05;4.80;;;1.83;;
49488;SDS011;35382;51.484;11.476;2023-04-01T05:48:47;6.70;;;1.80;;
49488;SDS011;35382;51.484;11.476;2023-04-01T05:50:28;4.60;;;1.90;;
49488;SDS011;35382;51.484;11.476;2023-04-01T05:52:09;6.95;;;2.00;;
49488;SDS011;35382;51.484;11.476;2023-04-01T05:53:50;7.65;;;2.60;;
49488;SDS011;35382;51.484;11.476;2023-04-01T05:55:34;5.72;;;2.10;;
49488;SDS011;35382;51.484;11.476;2023-04-01T05:57:15;6.70;;;1.85;;
49488;SDS011;35382;51.484;11.476;2023-04-01T05:58:56;6.15;;;2.08;;
49488;SDS011;35382;51.484;11.476;2023-04-01T06:00:38;6.63;;;2.13;;
49488;SDS011;35382;51.484;11.476;2023-04-01T06:02:19;5.95;;;2.03;;
49488;SDS011;35382;51.484;11.476;2023-04-01T06:04:00;5.78;;;2.20;;
49488;SDS011;35382;51.484;11.476;2023-04-01T06:05:42;5.88;;;1.77;;
49488;SDS011;35382;51.484;11.476;2023-04-01T06:07:24;6.10;;;2.28;;
49488;SDS011;35382;51.484;11.476;2023-04-01T06:09:15;5.20;;;2.25;;
49488;SDS011;35382;51.484;11.476;2023-04-01T06:11:17;6.78;;;2.38;;
49488;SDS011;35382;51.484;11.476;2023-04-01T06:23:02;6.13;;;2.50;;
49488;SDS011;35382;51.484;11.476;2023-04-01T06:27:29;5.40;;;1.80;;
49488;SDS011;35382;51.484;11.476;2023-04-01T06:35:02;3.83;;;1.45;;
49488;SDS011;35382;51.484;11.476;2023-04-01T06:39:11;3.75;;;1.50;;
49488;SDS011;35382;51.484;11.476;2023-04-01T06:48:23;5.40;;;1.70;;
49488;SDS011;35382;51.484;11.476;2023-04-01T06:50:54;4.78;;;1.50;;
49488;SDS011;35382;51.484;11.476;2023-04-01T06:57:20;4.80;;;1.55;;
49488;SDS011;35382;51.484;11.476;2023-04-01T06:59:19;5.47;;;1.25;;
49488;SDS011;35382;51.484;11.476;2023-04-01T07:01:10;3.80;;;1.80;;
49488;SDS011;35382;51.484;11.476;2023-04-01T07:03:02;5.57;;;2.00;;
49488;SDS011;35382;51.484;11.476;2023-04-01T07:04:53;6.50;;;1.52;;
49488;SDS011;35382;51.484;11.476;2023-04-01T07:06:39;3.63;;;1.48;;
49488;SDS011;35382;51.484;11.476;2023-04-01T07:10:35;4.80;;;1.48;;
49488;SDS011;35382;51.484;11.476;2023-04-01T07:12:52;3.22;;;1.35;;
49488;SDS011;35382;51.484;11.476;2023-04-01T07:14:39;4.78;;;1.40;;
49488;SDS011;35382;51.484;11.476;2023-04-01T07:16:26;3.80;;;1.35;;
49488;SDS011;35382;51.484;11.476;2023-04-01T07:18:14;3.25;;;1.30;;
49488;SDS011;35382;51.484;11.476;2023-04-01T07:20:02;4.32;;;1.50;;
49488;SDS011;35382;51.484;11.476;2023-04-01T07:22:01;3.15;;;1.25;;
49488;SDS011;35382;51.484;11.476;2023-04-01T07:24:09;2.28;;;1.20;;
49488;SDS011;35382;51.484;11.476;2023-04-01T07:26:19;4.05;;;1.20;;
49488;SDS011;35382;51.484;11.476;2023-04-01T07:28:26;5.70;;;1.63;;
49488;SDS011;35382;51.484;11.476;2023-04-01T07:30:18;2.85;;;1.00;;
49488;SDS011;35382;51.484;11.476;2023-04-01T07:36:05;4.28;;;1.33;;
49488;SDS011;35382;51.484;11.476;2023-04-01T07:49:57;2.97;;;1.05;;
49488;SDS011;35382;51.484;11.476;2023-04-01T07:54:00;4.72;;;1.27;;
49488;SDS011;35382;51.484;11.476;2023-04-01T08:01:39;3.47;;;1.13;;
49488;SDS011;35382;51.484;11.476;2023-04-01T08:03:43;4.82;;;1.25;;
49488;SDS011;35382;51.484;11.476;2023-04-01T08:08:15;1.70;;;0.90;;
49488;SDS011;35382;51.484;11.476;2023-04-01T08:16:41;1.48;;;0.90;;
49488;SDS011;35382;51.484;11.476;2023-04-01T08:20:29;5.40;;;1.05;;
49488;SDS011;35382;51.484;11.476;2023-04-01T08:22:20;2.97;;;1.10;;
49488;SDS011;35382;51.484;11.476;2023-04-01T08:24:27;3.30;;;1.10;;
49488;SDS011;35382;51.484;11.476;2023-04-01T08:26:19;4.78;;;1.25;;
49488;SDS011;35382;51.484;11.476;2023-04-01T08:28:34;4.28;;;1.30;;
49488;SDS011;35382;51.484;11.476;2023-04-01T08:30:41;5.07;;;1.58;;
49488;SDS011;35382;51.484;11.476;2023-04-01T08:32:32;1.98;;;1.00;;
49488;SDS011;35382;51.484;11.476;2023-04-01T08:34:18;2.72;;;1.02;;
49488;SDS011;35382;51.484;11.476;2023-04-01T08:49:17;3.60;;;0.95;;
49488;SDS011;35382;51.484;11.476;2023-04-01T08:52:34;4.72;;;2.17;;
49488;SDS011;35382;51.484;11.476;2023-04-01T09:00:38;3.17;;;1.00;;
49488;SDS011;35382;51.484;11.476;2023-04-01T09:09:45;2.80;;;1.00;;
49488;SDS011;35382;51.484;11.476;2023-04-01T09:11:41;2.97;;;1.00;;
49488;SDS011;35382;51.484;11.476;2023-04-01T09:13:47;2.60;;;0.90;;
49488;SDS011;35382;51.484;11.476;2023-04-01T09:15:42;5.20;;;1.23;;
49488;SDS011;35382;51.484;11.476;2023-04-01T09:19:54;3.00;;;1.00;;
49488;SDS011;35382;51.484;11.476;2023-04-01T09:26:59;3.25;;;1.15;;
49488;SDS011;35382;51.484;11.476;2023-04-01T09:30:52;2.03;;;1.05;;
49488;SDS011;35382;51.484;11.476;2023-04-01T09:34:45;2.17;;;0.90;;
49488;SDS011;35382;51.484;11.476;2023-04-01T09:36:45;1.35;;;0.88;;
49488;SDS011;35382;51.484;11.476;2023-04-01T09:38:35;1.83;;;0.82;;
49488;SDS011;35382;51.484;11.476;2023-04-01T09:43:02;2.20;;;0.98;;
49488;SDS011;35382;51.484;11.476;2023-04-01T09:44:58;1.70;;;0.70;;
49488;SDS011;35382;51.484;11.476;2023-04-01T09:48:54;1.20;;;0.80;;
49488;SDS011;35382;51.484;11.476;2023-04-01T09:51:17;4.65;;;1.65;;
49488;SDS011;35382;51.484;11.476;2023-04-01T10:03:36;2.40;;;0.85;;
49488;SDS011;35382;51.484;11.476;2023-04-01T10:17:04;2.75;;;0.60;;
49488;SDS011;35382;51.484;11.476;2023-04-01T10:21:39;1.73;;;0.77;;
49488;SDS011;35382;51.484;11.476;2023-04-01T10:23:42;2.42;;;0.68;;
49488;SDS011;35382;51.484;11.476;2023-04-01T10:28:03;1.73;;;0.60;;
49488;SDS011;35382;51.484;11.476;2023-04-01T10:33:03;2.20;;;0.80;;
49488;SDS011;35382;51.484;11.476;2023-04-01T10:37:42;2.78;;;0.80;;
49488;SDS011;35382;51.484;11.476;2023-04-01T10:48:40;2.13;;;0.93;;
49488;SDS011;35382;51.484;11.476;2023-04-01T10:58:06;3.00;;;0.77;;
49488;SDS011;35382;51.484;11.476;2023-04-01T11:20:51;2.28;;;0.80;;
49488;SDS011;35382;51.484;11.476;2023-04-01T11:23:05;2.33;;;1.00;;
49488;SDS011;35382;51.484;11.476;2023-04-01T11:29:03;2.58;;;1.05;;
49488;SDS011;35382;51.484;11.476;2023-04-01T11:31:09;4.28;;;1.05;;
49488;SDS011;35382;51.484;11.476;2023-04-01T11:46:31;2.15;;;0.90;;
49488;SDS011;35382;51.484;11.476;2023-04-01T11:48:39;1.75;;;0.98;;
49488;SDS011;35382;51.484;11.476;2023-04-01T11:50:45;3.17;;;1.08;;
49488;SDS011;35382;51.484;11.476;2023-04-01T11:52:56;1.33;;;0.70;;
49488;SDS011;35382;51.484;11.476;2023-04-01T11:54:58;3.20;;;1.00;;
49488;SDS011;35382;51.484;11.476;2023-04-01T11:57:28;2.60;;;1.05;;
49488;SDS011;35382;51.484;11.476;2023-04-01T12:04:04;2.03;;;1.00;;
49488;SDS011;35382;51.484;11.476;2023-04-01T12:05:38;2.47;;;1.20;;
49488;SDS011;35382;51.484;11.476;2023-04-01T12:07:32;4.55;;;1.20;;
49488;SDS011;35382;51.484;11.476;2023-04-01T12:11:41;2.05;;;0.85;;
49488;SDS011;35382;51.484;11.476;2023-04-01T12:13:34;1.77;;;0.90;;
49488;SDS011;35382;51.484;11.476;2023-04-01T12:25:52;1.85;;;0.90;;
49488;SDS011;35382;51.484;11.476;2023-04-01T12:27:59;4.03;;;1.17;;
49488;SDS011;35382;51.484;11.476;2023-04-01T12:30:05;2.65;;;1.00;;
49488;SDS011;35382;51.484;11.476;2023-04-01T12:35:53;1.38;;;0.70;;
49488;SDS011;35382;51.484;11.476;2023-04-01T12:39:48;3.38;;;0.90;;
49488;SDS011;35382;51.484;11.476;2023-04-01T12:41:49;1.27;;;0.70;;
49488;SDS011;35382;51.484;11.476;2023-04-01T12:44:02;2.05;;;0.77;;
49488;SDS011;35382;51.484;11.476;2023-04-01T12:46:29;3.83;;;0.90;;
49488;SDS011;35382;51.484;11.476;2023-04-01T12:50:26;2.90;;;0.90;;
49488;SDS011;35382;51.484;11.476;2023-04-01T12:52:15;3.08;;;1.05;;
49488;SDS011;35382;51.484;11.476;2023-04-01T12:54:22;2.90;;;1.00;;
49488;SDS011;35382;51.484;11.476;2023-04-01T12:58:20;2.25;;;1.10;;
49488;SDS011;35382;51.484;11.476;2023-04-01T13:00:19;2.67;;;1.23;;
49488;SDS011;35382;51.484;11.476;2023-04-01T13:02:19;1.35;;;0.70;;
49488;SDS011;35382;51.484;11.476;2023-04-01T13:04:29;2.05;;;0.90;;
49488;SDS011;35382;51.484;11.476;2023-04-01T13:08:34;2.28;;;0.90;;
49488;SDS011;35382;51.484;11.476;2023-04-01T13:10:31;2.08;;;1.00;;
49488;SDS011;35382;51.484;11.476;2023-04-01T13:16:33;3.10;;;1.17;;
49488;SDS011;35382;51.484;11.476;2023-04-01T13:22:05;1.90;;;1.10;;
49488;SDS011;35382;51.484;11.476;2023-04-01T13:26:08;3.15;;;1.48;;
49488;SDS011;35382;51.484;11.476;2023-04-01T13:27:56;3.42;;;1.55;;
49488;SDS011;35382;51.484;11.476;2023-04-01T13:29:44;2.22;;;1.40;;
49488;SDS011;35382;51.484;11.476;2023-04-01T13:31:38;2.53;;;1.30;;
49488;SDS011;35382;51.484;11.476;2023-04-01T13:35:23;1.35;;;0.90;;
49488;SDS011;35382;51.484;11.476;2023-04-01T13:43:27;2.60;;;1.42;;
49488;SDS011;35382;51.484;11.476;2023-04-01T13:45:19;4.32;;;2.10;;
49488;SDS011;35382;51.484;11.476;2023-04-01T13:47:06;2.47;;;0.90;;
49488;SDS011;35382;51.484;11.476;2023-04-01T13:52:52;2.67;;;0.90;;
49488;SDS011;35382;51.484;11.476;2023-04-01T14:02:31;2.95;;;1.13;;
49488;SDS011;35382;51.484;11.476;2023-04-01T14:10:43;1.80;;;1.00;;
49488;SDS011;35382;51.484;11.476;2023-04-01T14:12:57;2.60;;;1.10;;
49488;SDS011;35382;51.484;11.476;2023-04-01T14:21:25;4.30;;;2.17;;
49488;SDS011;35382;51.484;11.476;2023-04-01T14:23:27;3.78;;;2.15;;
49488;SDS011;35382;51.484;11.476;2023-04-01T14:27:41;4.45;;;2.13;;
49488;SDS011;35382;51.484;11.476;2023-04-01T14:31:20;2.70;;;1.70;;
49488;SDS011;35382;51.484;11.476;2023-04-01T14:35:16;3.28;;;1.63;;
49488;SDS011;35382;51.484;11.476;2023-04-01T14:37:25;1.92;;;1.27;;
49488;SDS011;35382;51.484;11.476;2023-04-01T14:41:19;3.17;;;1.92;;
49488;SDS011;35382;51.484;11.476;2023-04-01T14:43:10;6.75;;;3.35;;
49488;SDS011;35382;51.484;11.476;2023-04-01T14:49:15;2.30;;;1.42;;
49488;SDS011;35382;51.484;11.476;2023-04-01T14:51:09;2.67;;;1.85;;
49488;SDS011;35382;51.484;11.476;2023-04-01T14:52:57;4.70;;;1.95;;
49488;SDS011;35382;51.484;11.476;2023-04-01T14:54:40;4.50;;;1.73;;
49488;SDS011;35382;51.484;11.476;2023-04-01T14:58:17;2.05;;;1.38;;
49488;SDS011;35382;51.484;11.476;2023-04-01T15:03:51;3.30;;;1.50;;
49488;SDS011;35382;51.484;11.476;2023-04-01T15:05:46;2.88;;;1.52;;
49488;SDS011;35382;51.484;11.476;2023-04-01T15:07:40;3.20;;;1.70;;
49488;SDS011;35382;51.484;11.476;2023-04-01T15:21:22;5.30;;;3.53;;
49488;SDS011;35382;51.484;11.476;2023-04-01T15:25:19;4.65;;;2.88;;
49488;SDS011;35382;51.484;11.476;2023-04-01T15:27:37;3.58;;;2.20;;
49488;SDS011;35382;51.484;11.476;2023-04-01T15:35:31;5.95;;;4.72;;
49488;SDS011;35382;51.484;11.476;2023-04-01T15:37:40;4.88;;;2.72;;
49488;SDS011;35382;51.484;11.476;2023-04-01T15:41:39;6.72;;;5.30;;
49488;SDS011;35382;51.484;11.476;2023-04-01T15:43:42;7.50;;;4.20;;
49488;SDS011;35382;51.484;11.476;2023-04-01T15:45:29;7.63;;;4.80;;
49488;SDS011;35382;51.484;11.476;2023-04-01T15:58:59;18.75;;;13.00;;
49488;SDS011;35382;51.484;11.476;2023-04-01T16:04:59;8.35;;;4.57;;
49488;SDS011;35382;51.484;11.476;2023-04-01T16:20:57;9.63;;;6.25;;
49488;SDS011;35382;51.484;11.476;2023-04-01T16:22:54;13.27;;;9.15;;
49488;SDS011;35382;51.484;11.476;2023-04-01T16:24:48;12.77;;;8.63;;
49488;SDS011;35382;51.484;11.476;2023-04-01T16:27:08;8.55;;;5.18;;
49488;SDS011;35382;51.484;11.476;2023-04-01T16:29:17;8.80;;;6.18;;
49488;SDS011;35382;51.484;11.476;2023-04-01T16:31:14;10.52;;;7.10;;
49488;SDS011;35382;51.484;11.476;2023-04-01T16:35:16;7.95;;;4.60;;
49488;SDS011;35382;51.484;11.476;2023-04-01T16:37:07;7.05;;;5.35;;
49488;SDS011;35382;51.484;11.476;2023-04-01T16:39:11;8.23;;;6.43;;
49488;SDS011;35382;51.484;11.476;2023-04-01T16:42:48;12.48;;;6.70;;
49488;SDS011;35382;51.484;11.476;2023-04-01T16:44:44;6.47;;;4.72;;
49488;SDS011;35382;51.484;11.476;2023-04-01T16:46:38;10.65;;;7.97;;
49488;SDS011;35382;51.484;11.476;2023-04-01T16:48:35;8.82;;;6.53;;